createdAt,value
2019-01-12T00:01:30.528Z,36.83
2019-01-12T00:03:59.397Z,36.07
2019-01-12T00:06:28.221Z,39.17
2019-01-12T00:08:57.073Z,36.17
2019-01-12T00:11:25.917Z,32.73
2019-01-12T00:13:54.762Z,33.47
2019-01-12T00:16:24.196Z,33.70
2019-01-12T00:18:53.104Z,33.27
2019-01-12T00:21:21.909Z,35.93
2019-01-12T00:23:50.784Z,38.78
2019-01-12T00:26:19.609Z,35.13
2019-01-12T00:28:48.447Z,36.60
2019-01-12T00:31:17.291Z,37.80
2019-01-12T00:33:46.125Z,35.43
2019-01-12T00:36:14.987Z,35.47
2019-01-12T00:38:43.819Z,36.13
2019-01-12T00:41:13.758Z,36.33
2019-01-12T00:43:41.487Z,38.27
2019-01-12T00:46:10.331Z,40.58
2019-01-12T00:48:39.183Z,36.43
2019-01-12T00:51:08.020Z,35.50
2019-01-12T00:53:36.901Z,35.23
2019-01-12T00:56:05.707Z,36.00
2019-01-12T00:58:35.289Z,36.10
2019-01-12T01:01:04.145Z,37.27
2019-01-12T01:03:32.979Z,36.58
2019-01-12T01:06:01.838Z,35.17
2019-01-12T01:08:30.668Z,37.33
2019-01-12T01:10:59.511Z,34.70
2019-01-12T01:13:28.346Z,34.67
2019-01-12T01:15:57.928Z,32.47
2019-01-12T01:18:26.761Z,34.43
2019-01-12T01:20:55.617Z,33.90
2019-01-12T01:23:24.468Z,36.87
2019-01-12T01:25:53.290Z,35.78
2019-01-12T01:28:22.133Z,31.37
2019-01-12T01:30:50.979Z,33.50
2019-01-12T01:33:19.814Z,32.07
2019-01-12T01:35:48.639Z,33.92
2019-01-12T01:38:17.482Z,32.13
2019-01-12T01:40:46.313Z,31.52
2019-01-12T01:43:15.136Z,27.53
2019-01-12T01:45:43.974Z,26.93
2019-01-12T01:48:12.809Z,26.80
2019-01-12T01:50:41.663Z,25.27
2019-01-12T01:53:10.508Z,27.53
2019-01-12T01:55:39.351Z,28.83
2019-01-12T01:58:08.186Z,27.40
2019-01-12T02:00:37.020Z,25.50
2019-01-12T02:03:05.886Z,24.60
2019-01-12T02:05:34.725Z,26.33
2019-01-12T02:08:04.294Z,25.37
2019-01-12T02:10:33.150Z,26.47
2019-01-12T02:13:01.994Z,26.00
2019-01-12T02:15:30.833Z,26.17
2019-01-12T02:17:59.670Z,27.42
2019-01-12T02:20:28.507Z,26.20
2019-01-12T02:22:57.352Z,26.30
2019-01-12T02:25:26.196Z,26.20
2019-01-12T02:27:55.024Z,26.40
2019-01-12T02:30:23.908Z,27.70
2019-01-12T02:32:52.695Z,27.57
2019-01-12T02:35:21.523Z,28.50
2019-01-12T02:37:50.364Z,27.53
2019-01-12T02:40:19.209Z,27.03
2019-01-12T02:42:48.042Z,28.00
2019-01-12T02:45:16.891Z,25.87
2019-01-12T02:47:45.742Z,25.93
2019-01-12T02:50:15.386Z,27.33
2019-01-12T02:52:44.160Z,26.13
2019-01-12T02:55:13.010Z,26.07
2019-01-12T02:57:41.838Z,26.80
2019-01-12T03:00:14.218Z,25.27
2019-01-12T03:02:43.812Z,25.43
2019-01-12T03:05:12.652Z,27.37
2019-01-12T03:07:41.490Z,25.10
2019-01-12T03:10:11.075Z,28.67
2019-01-12T03:12:39.890Z,31.57
2019-01-12T03:15:08.745Z,27.53
2019-01-12T03:17:37.594Z,29.03
2019-01-12T03:20:07.336Z,28.53
2019-01-12T03:22:36.168Z,29.53
2019-01-12T03:25:05.014Z,32.93
2019-01-12T03:27:33.852Z,31.87
2019-01-12T03:30:02.694Z,29.90
2019-01-12T03:32:31.524Z,33.43
2019-01-12T03:35:00.408Z,29.07
2019-01-12T03:37:29.223Z,30.93
2019-01-12T03:39:58.034Z,30.67
2019-01-12T03:42:26.884Z,27.43
2019-01-12T03:44:55.721Z,32.08
2019-01-12T03:47:24.546Z,28.27
2019-01-12T03:49:54.126Z,26.20
2019-01-12T03:52:22.960Z,29.87
2019-01-12T03:54:51.807Z,28.80
2019-01-12T03:57:20.635Z,29.80
2019-01-12T03:59:49.503Z,29.23
2019-01-12T04:02:18.360Z,31.47
2019-01-12T04:04:47.185Z,33.13
2019-01-12T04:07:16.030Z,31.57
2019-01-12T04:09:44.866Z,33.00
2019-01-12T04:12:14.438Z,30.47
2019-01-12T04:14:43.282Z,28.80
2019-01-12T04:17:12.134Z,29.57
2019-01-12T04:19:40.968Z,29.93
2019-01-12T04:22:09.798Z,29.73
2019-01-12T04:24:38.646Z,30.37
2019-01-12T04:27:07.490Z,29.77
2019-01-12T04:29:37.059Z,29.77
2019-01-12T04:32:05.900Z,30.00
2019-01-12T04:34:34.728Z,27.87
2019-01-12T04:37:03.575Z,29.77
2019-01-12T04:39:32.418Z,29.37
2019-01-12T04:42:01.256Z,29.60
2019-01-12T04:44:30.108Z,29.53
2019-01-12T04:46:58.942Z,27.07
2019-01-12T04:49:27.789Z,27.63
2019-01-12T04:51:56.612Z,29.30
2019-01-12T04:54:25.457Z,26.60
2019-01-12T04:56:54.323Z,30.67
2019-01-12T04:59:23.173Z,27.17
2019-01-12T05:01:52.004Z,26.20
2019-01-12T05:04:20.834Z,27.43
2019-01-12T05:06:49.688Z,28.50
2019-01-12T05:09:18.528Z,33.20
2019-01-12T05:11:48.147Z,31.90
2019-01-12T05:14:16.952Z,31.93
2019-01-12T05:16:45.780Z,28.33
2019-01-12T05:19:14.612Z,29.53
2019-01-12T05:21:44.198Z,31.10
2019-01-12T05:24:13.036Z,30.23
2019-01-12T05:26:41.862Z,28.93
2019-01-12T05:29:10.698Z,29.07
2019-01-12T05:31:39.546Z,30.43
2019-01-12T05:34:08.380Z,30.67
2019-01-12T05:36:37.212Z,30.43
2019-01-12T05:39:06.047Z,30.20
2019-01-12T05:41:34.880Z,31.77
2019-01-12T05:44:03.712Z,31.63
2019-01-12T05:46:33.290Z,31.70
2019-01-12T05:49:02.134Z,32.03
2019-01-12T05:51:30.979Z,31.50
2019-01-12T05:53:59.822Z,32.13
2019-01-12T05:56:28.660Z,31.20
2019-01-12T05:58:58.096Z,30.23
2019-01-12T06:01:26.924Z,31.63
2019-01-12T06:03:55.762Z,31.33
2019-01-12T06:06:24.602Z,34.53
2019-01-12T06:08:53.443Z,33.63
2019-01-12T06:11:22.272Z,31.13
2019-01-12T06:13:51.100Z,32.80
2019-01-12T06:16:20.683Z,32.53
2019-01-12T06:18:49.519Z,34.13
2019-01-12T06:21:18.350Z,35.57
2019-01-12T06:23:47.180Z,30.43
2019-01-12T06:26:16.762Z,33.83
2019-01-12T06:28:45.595Z,31.47
2019-01-12T06:31:14.444Z,34.47
2019-01-12T06:33:43.282Z,38.63
2019-01-12T06:36:12.108Z,36.17
2019-01-12T06:38:40.937Z,34.73
2019-01-12T06:41:09.771Z,36.90
2019-01-12T06:43:38.606Z,38.27
2019-01-12T06:46:07.450Z,37.97
2019-01-12T06:48:36.294Z,38.83
2019-01-12T06:51:05.134Z,38.90
2019-01-12T06:53:33.972Z,36.87
2019-01-12T06:56:02.818Z,41.60
2019-01-12T06:58:31.637Z,39.53
2019-01-12T07:01:01.213Z,40.20
2019-01-12T07:03:30.054Z,40.57
2019-01-12T07:05:58.888Z,39.50
2019-01-12T07:08:27.723Z,36.67
2019-01-12T07:10:56.570Z,35.43
2019-01-12T07:13:25.398Z,36.83
2019-01-12T07:15:54.239Z,35.07
2019-01-12T07:18:23.078Z,34.30
2019-01-12T07:20:51.938Z,35.00
2019-01-12T07:23:20.791Z,36.77
2019-01-12T07:25:49.616Z,33.90
2019-01-12T07:28:18.456Z,35.13
2019-01-12T07:30:47.289Z,34.70
2019-01-12T07:33:16.133Z,35.70
2019-01-12T07:35:44.986Z,32.27
2019-01-12T07:38:14.568Z,23.50
2019-01-12T07:40:43.406Z,33.40
2019-01-12T07:43:12.268Z,32.90
2019-01-12T07:45:41.853Z,36.57
2019-01-12T07:48:10.710Z,32.63
2019-01-12T07:50:39.552Z,30.37
2019-01-12T07:53:09.154Z,30.17
2019-01-12T07:55:38.012Z,30.47
2019-01-12T07:58:06.916Z,29.75
2019-01-12T08:00:35.714Z,28.20
2019-01-12T08:03:04.565Z,28.87
2019-01-12T08:05:33.409Z,30.02
2019-01-12T08:08:02.992Z,27.63
2019-01-12T08:10:31.816Z,33.42
2019-01-12T08:13:00.668Z,27.40
2019-01-12T08:15:29.506Z,26.60
2019-01-12T08:17:58.374Z,28.33
2019-01-12T08:20:27.208Z,29.30
2019-01-12T08:22:56.042Z,25.40
2019-01-12T08:25:25.651Z,26.77
2019-01-12T08:27:55.252Z,28.87
2019-01-12T08:30:25.275Z,29.23
2019-01-12T08:32:54.118Z,29.60
2019-01-12T08:35:22.955Z,25.20
2019-01-12T08:37:51.792Z,25.63
2019-01-12T08:40:20.648Z,27.73
2019-01-12T08:42:50.434Z,26.00
2019-01-12T08:45:19.260Z,28.07
2019-01-12T08:47:48.102Z,29.60
2019-01-12T08:50:16.938Z,27.27
2019-01-12T08:52:45.793Z,28.30
2019-01-12T08:55:14.613Z,27.97
2019-01-12T08:57:43.452Z,28.13
2019-01-12T09:00:13.251Z,29.17
2019-01-12T09:02:42.082Z,28.20
2019-01-12T09:05:10.908Z,28.43
2019-01-12T09:07:39.732Z,28.53
2019-01-12T09:10:09.538Z,28.73
2019-01-12T09:12:38.349Z,34.57
2019-01-12T09:15:07.197Z,31.43
2019-01-12T09:17:36.648Z,31.98
2019-01-12T09:20:06.224Z,30.17
2019-01-12T09:22:35.070Z,27.83
2019-01-12T09:25:03.984Z,29.93
2019-01-12T09:27:33.512Z,27.93
2019-01-12T09:30:02.355Z,27.77
2019-01-12T09:32:31.204Z,27.23
2019-01-12T09:35:00.238Z,25.63
2019-01-12T09:37:28.892Z,24.80
2019-01-12T09:39:57.742Z,25.37
2019-01-12T09:42:26.576Z,26.52
2019-01-12T09:44:56.154Z,25.87
2019-01-12T09:47:25.013Z,22.17
2019-01-12T09:49:53.883Z,24.43
2019-01-12T09:52:22.698Z,22.10
2019-01-12T09:54:51.663Z,22.87
2019-01-12T09:57:20.537Z,21.80
2019-01-12T09:59:52.337Z,23.30
2019-01-12T10:02:21.177Z,23.67
2019-01-12T10:04:50.769Z,22.47
2019-01-12T10:07:19.632Z,24.17
2019-01-12T10:09:48.468Z,24.05
2019-01-12T10:12:18.060Z,23.27
2019-01-12T10:14:46.924Z,21.47
2019-01-12T10:17:15.772Z,23.60
2019-01-12T10:19:44.634Z,22.63
2019-01-12T10:22:14.225Z,21.57
2019-01-12T10:24:43.054Z,24.20
2019-01-12T10:27:11.890Z,22.67
2019-01-12T10:29:40.745Z,22.40
2019-01-12T10:32:09.581Z,20.43
2019-01-12T10:34:38.433Z,22.50
2019-01-12T10:37:07.264Z,25.02
2019-01-12T10:39:36.100Z,23.83
2019-01-12T10:42:04.948Z,22.27
2019-01-12T10:44:34.528Z,26.43
2019-01-12T10:47:03.400Z,27.07
2019-01-12T10:49:32.224Z,25.10
2019-01-12T10:52:01.801Z,26.33
2019-01-12T10:54:30.630Z,29.20
2019-01-12T10:57:05.365Z,28.33
2019-01-12T10:59:29.103Z,28.42
2019-01-12T11:01:57.938Z,26.47
2019-01-12T11:04:26.776Z,28.80
2019-01-12T11:06:55.610Z,25.23
2019-01-12T11:09:25.176Z,27.17
2019-01-12T11:11:54.010Z,27.97
2019-01-12T11:14:22.852Z,28.30
2019-01-12T11:16:51.686Z,26.60
2019-01-12T11:19:20.529Z,26.10
2019-01-12T11:21:49.356Z,26.07
2019-01-12T11:24:18.927Z,25.67
2019-01-12T11:26:47.765Z,26.70
2019-01-12T11:29:16.618Z,26.93
2019-01-12T11:31:45.462Z,26.60
2019-01-12T11:34:14.299Z,28.12
2019-01-12T11:36:43.146Z,28.75
2019-01-12T11:39:11.992Z,28.75
2019-01-12T11:41:40.820Z,25.13
2019-01-12T11:44:09.667Z,25.50
2019-01-12T11:46:39.248Z,25.30
2019-01-12T11:49:08.095Z,24.03
2019-01-12T11:51:36.950Z,27.70
2019-01-12T11:54:06.525Z,24.17
2019-01-12T11:56:35.362Z,23.33
2019-01-12T11:59:04.192Z,24.30
2019-01-12T12:01:33.022Z,22.67
2019-01-12T12:04:01.899Z,23.67
2019-01-12T12:06:30.774Z,25.53
2019-01-12T12:08:59.606Z,25.10
2019-01-12T12:11:28.443Z,23.50
2019-01-12T12:13:57.272Z,25.03
2019-01-12T12:16:26.888Z,23.90
2019-01-12T12:18:55.702Z,24.43
2019-01-12T12:21:24.547Z,26.50
2019-01-12T12:23:53.377Z,27.10
2019-01-12T12:26:22.215Z,21.57
2019-01-12T12:28:51.066Z,24.63
2019-01-12T12:31:19.914Z,23.77
2019-01-12T12:33:48.772Z,33.58
2019-01-12T12:36:17.619Z,23.83
2019-01-12T12:38:46.457Z,23.33
2019-01-12T12:41:15.312Z,29.45
2019-01-12T12:43:44.160Z,21.95
2019-01-12T12:46:13.804Z,29.57
2019-01-12T12:48:42.615Z,64.30
2019-01-12T12:51:11.461Z,22.50
2019-01-12T12:53:40.303Z,21.47
2019-01-12T12:56:09.255Z,24.77
2019-01-12T12:58:38.007Z,22.47
2019-01-12T13:01:07.602Z,22.37
2019-01-12T13:03:37.193Z,23.23
2019-01-12T13:06:06.042Z,18.60
2019-01-12T13:08:34.905Z,21.90
2019-01-12T13:11:03.767Z,21.30
2019-01-12T13:13:32.585Z,21.00
2019-01-12T13:16:01.432Z,21.67
2019-01-12T13:18:30.392Z,21.33
2019-01-12T13:20:59.961Z,23.05
2019-01-12T13:23:28.816Z,21.53
2019-01-12T13:25:57.652Z,22.10
2019-01-12T13:28:26.491Z,20.30
2019-01-12T13:30:55.313Z,18.80
2019-01-12T13:33:24.151Z,20.70
2019-01-12T13:35:52.994Z,20.27
2019-01-12T13:38:22.627Z,19.33
2019-01-12T13:40:51.424Z,21.17
2019-01-12T13:43:20.251Z,21.55
2019-01-12T13:45:49.105Z,21.27
2019-01-12T13:48:17.954Z,20.13
2019-01-12T13:50:46.799Z,21.70
2019-01-12T13:53:15.651Z,24.17
2019-01-12T13:55:44.488Z,20.33
2019-01-12T13:58:13.329Z,20.10
2019-01-12T14:00:42.156Z,18.97
2019-01-12T14:03:11.007Z,18.77
2019-01-12T14:05:39.844Z,19.83
2019-01-12T14:08:08.683Z,19.60
2019-01-12T14:10:37.527Z,19.50
2019-01-12T14:13:06.362Z,19.10
2019-01-12T14:15:35.196Z,19.00
2019-01-12T14:18:04.032Z,18.37
2019-01-12T14:20:32.129Z,18.57
2019-01-12T14:23:00.970Z,18.50
2019-01-12T14:25:29.837Z,19.27
2019-01-12T14:27:58.674Z,18.97
2019-01-12T14:30:27.518Z,21.80
2019-01-12T14:32:56.364Z,18.93
2019-01-12T14:35:25.188Z,18.63
2019-01-12T14:37:54.039Z,17.57
2019-01-12T14:40:22.893Z,18.83
2019-01-12T14:42:51.739Z,18.90
2019-01-12T14:45:21.380Z,18.90
2019-01-12T14:47:50.215Z,18.80
2019-01-12T14:50:19.062Z,19.07
2019-01-12T14:52:48.644Z,20.67
2019-01-12T14:55:17.632Z,19.87
2019-01-12T14:57:46.449Z,18.80
2019-01-12T15:00:16.856Z,19.93
2019-01-12T15:02:46.964Z,22.37
2019-01-12T15:05:15.424Z,18.87
2019-01-12T15:07:45.002Z,22.20
2019-01-12T15:10:13.856Z,18.30
2019-01-12T15:12:42.703Z,20.65
2019-01-12T15:15:11.556Z,16.80
2019-01-12T15:17:41.149Z,14.40
2019-01-12T15:20:10.941Z,19.70
2019-01-12T15:22:39.794Z,16.73
2019-01-12T15:25:08.621Z,13.77
2019-01-12T15:27:37.463Z,13.67
2019-01-12T15:30:10.180Z,14.93
2019-01-12T15:32:39.029Z,13.53
2019-01-12T15:35:07.871Z,13.67
2019-01-12T15:37:36.710Z,13.80
2019-01-12T15:40:05.556Z,13.33
2019-01-12T15:42:34.405Z,13.77
2019-01-12T15:45:03.263Z,13.90
2019-01-12T15:47:32.128Z,14.53
2019-01-12T15:50:00.960Z,17.23
2019-01-12T15:52:29.830Z,14.23
2019-01-12T15:54:58.680Z,14.13
2019-01-12T15:57:27.525Z,15.45
2019-01-12T15:59:56.431Z,15.30
2019-01-12T16:02:25.250Z,14.80
2019-01-12T16:04:54.100Z,17.08
2019-01-12T16:07:22.946Z,15.30
2019-01-12T16:09:51.797Z,15.53
2019-01-12T16:12:20.638Z,18.08
2019-01-12T16:14:50.255Z,15.70
2019-01-12T16:17:19.100Z,18.80
2019-01-12T16:19:47.953Z,17.13
2019-01-12T16:22:16.804Z,16.10
2019-01-12T16:24:45.666Z,15.23
2019-01-12T16:27:14.520Z,18.77
2019-01-12T16:29:43.364Z,16.80
2019-01-12T16:32:12.217Z,17.70
2019-01-12T16:34:41.049Z,16.85
2019-01-12T16:37:09.909Z,14.77
2019-01-12T16:39:38.746Z,16.83
2019-01-12T16:42:08.334Z,15.33
2019-01-12T16:44:37.202Z,14.60
2019-01-12T16:47:06.066Z,16.30
2019-01-12T16:49:34.902Z,16.23
2019-01-12T16:52:03.756Z,17.00
2019-01-12T16:54:32.592Z,16.40
2019-01-12T16:57:02.180Z,16.53
2019-01-12T16:59:31.047Z,19.20
2019-01-12T17:01:59.895Z,18.43
2019-01-12T17:04:29.478Z,15.63
2019-01-12T17:06:58.337Z,15.90
2019-01-12T17:09:27.185Z,17.02
2019-01-12T17:11:56.033Z,15.53
2019-01-12T17:14:24.866Z,17.62
2019-01-12T17:16:53.706Z,15.90
2019-01-12T17:19:22.557Z,15.93
2019-01-12T17:21:51.426Z,15.37
2019-01-12T17:24:20.270Z,15.17
2019-01-12T17:26:49.111Z,14.47
2019-01-12T17:29:18.147Z,14.63
2019-01-12T17:31:47.701Z,14.20
2019-01-12T17:34:15.641Z,15.10
2019-01-12T17:36:44.475Z,13.20
2019-01-12T17:39:13.318Z,13.03
2019-01-12T17:41:42.186Z,13.90
2019-01-12T17:44:11.049Z,13.60
2019-01-12T17:46:39.907Z,11.97
2019-01-12T17:49:09.485Z,12.63
2019-01-12T17:51:38.328Z,12.83
2019-01-12T17:54:07.179Z,12.17
2019-01-12T17:56:36.045Z,13.02
2019-01-12T17:59:04.890Z,12.07
2019-01-12T18:01:33.707Z,11.30
2019-01-12T18:04:02.549Z,11.03
2019-01-12T18:06:31.382Z,10.27
2019-01-12T18:09:00.215Z,8.97
2019-01-12T18:11:29.907Z,9.07
2019-01-12T18:13:58.632Z,8.10
2019-01-12T18:16:27.471Z,8.30
2019-01-12T18:18:56.309Z,7.63
2019-01-12T18:21:25.152Z,7.50
2019-01-12T18:23:53.987Z,6.23
2019-01-12T18:26:22.829Z,5.97
2019-01-12T18:28:51.685Z,7.30
2019-01-12T18:31:20.675Z,7.53
2019-01-12T18:33:50.119Z,8.03
2019-01-12T18:36:19.710Z,8.27
2019-01-12T18:38:48.550Z,7.63
2019-01-12T18:41:17.367Z,8.73
2019-01-12T18:43:46.199Z,8.17
2019-01-12T18:46:15.073Z,7.77
2019-01-12T18:48:43.881Z,8.20
2019-01-12T18:51:12.716Z,8.00
2019-01-12T18:53:41.555Z,7.77
2019-01-12T18:56:10.377Z,7.03
2019-01-12T18:58:39.203Z,7.33
2019-01-12T19:01:08.046Z,6.47
2019-01-12T19:03:36.895Z,5.90
2019-01-12T19:06:05.739Z,6.17
2019-01-12T19:08:34.579Z,6.07
2019-01-12T19:11:03.427Z,7.17
2019-01-12T19:13:32.259Z,5.93
2019-01-12T19:16:01.096Z,5.50
2019-01-12T19:18:29.961Z,5.33
2019-01-12T19:20:58.809Z,4.70
2019-01-12T19:23:27.699Z,4.73
2019-01-12T19:25:56.538Z,5.20
2019-01-12T19:28:25.363Z,5.10
2019-01-12T19:30:54.198Z,5.37
2019-01-12T19:33:23.768Z,5.60
2019-01-12T19:35:52.638Z,6.62
2019-01-12T19:38:21.454Z,6.60
2019-01-12T19:40:50.296Z,7.25
2019-01-12T19:43:19.125Z,7.35
2019-01-12T19:45:47.954Z,7.27
2019-01-12T19:48:17.524Z,7.77
2019-01-12T19:50:46.412Z,7.70
2019-01-12T19:53:15.253Z,8.53
2019-01-12T19:55:44.834Z,8.53
2019-01-12T19:58:13.672Z,7.43
2019-01-12T20:00:42.508Z,7.03
2019-01-12T20:03:11.344Z,7.63
2019-01-12T20:05:40.173Z,7.60
2019-01-12T20:08:09.010Z,7.13
2019-01-12T20:10:37.860Z,7.13
2019-01-12T20:13:06.718Z,7.83
2019-01-12T20:15:35.572Z,6.87
2019-01-12T20:18:04.405Z,6.97
2019-01-12T20:20:33.253Z,7.00
2019-01-12T20:23:02.081Z,6.63
2019-01-12T20:25:30.922Z,6.90
2019-01-12T20:27:59.756Z,6.63
2019-01-12T20:30:30.399Z,6.97
2019-01-12T20:33:05.855Z,6.93
2019-01-12T20:35:42.401Z,6.40
2019-01-12T20:38:12.140Z,6.20
2019-01-12T20:43:31.417Z,6.43
2019-01-12T20:46:12.204Z,5.93
2019-01-12T20:48:49.877Z,6.18
2019-01-12T20:51:30.622Z,6.12
2019-01-12T20:54:03.875Z,5.80
2019-01-12T20:56:33.466Z,5.27
2019-01-12T20:59:07.975Z,4.90
2019-01-12T21:04:34.258Z,5.40
2019-01-12T21:09:59.165Z,5.45
2019-01-12T21:15:11.651Z,4.78
2019-01-12T21:17:40.484Z,3.70
2019-01-12T21:20:09.320Z,3.63
2019-01-12T21:22:38.155Z,3.63
2019-01-12T21:25:06.997Z,3.30
2019-01-12T21:27:35.838Z,3.53
2019-01-12T21:30:05.518Z,4.20
2019-01-12T21:32:34.363Z,3.40
2019-01-12T21:35:03.206Z,3.70
2019-01-12T21:37:33.051Z,3.80
2019-01-12T21:40:01.899Z,4.40
2019-01-12T21:42:30.767Z,4.53
2019-01-12T21:44:59.598Z,4.97
2019-01-12T21:47:29.213Z,5.57
2019-01-12T21:49:58.010Z,6.07
2019-01-12T21:52:26.867Z,6.20
2019-01-12T21:54:55.729Z,5.83
2019-01-12T21:57:24.566Z,5.80
2019-01-12T21:59:54.183Z,6.97
2019-01-12T22:02:23.061Z,5.93
2019-01-12T22:04:52.641Z,7.65
2019-01-12T22:07:21.496Z,6.17
2019-01-12T22:09:50.331Z,7.05
2019-01-12T22:12:20.030Z,6.70
2019-01-12T22:14:48.815Z,7.87
2019-01-12T22:17:17.719Z,6.70
2019-01-12T22:19:46.518Z,6.50
2019-01-12T22:22:15.357Z,6.47
2019-01-12T22:24:44.191Z,6.50
2019-01-12T22:27:13.041Z,6.83
2019-01-12T22:29:41.875Z,6.20
2019-01-12T22:32:11.484Z,6.80
2019-01-12T22:34:40.326Z,6.40
2019-01-12T22:37:09.163Z,6.80
2019-01-12T22:39:38.001Z,6.57
2019-01-12T22:42:06.867Z,6.67
2019-01-12T22:44:35.691Z,6.60
2019-01-12T22:47:04.550Z,7.03
2019-01-12T22:49:33.387Z,6.43
2019-01-12T22:52:02.247Z,7.43
2019-01-12T22:54:31.092Z,7.80
2019-01-12T22:56:59.920Z,8.73
2019-01-12T22:59:28.787Z,8.63
2019-01-12T23:01:57.633Z,9.00
2019-01-12T23:04:27.212Z,8.17
2019-01-12T23:06:56.042Z,8.40
2019-01-12T23:09:24.888Z,8.70
2019-01-12T23:11:53.738Z,9.03
2019-01-12T23:14:22.559Z,8.97
2019-01-12T23:16:51.397Z,9.17
2019-01-12T23:19:20.977Z,9.43
2019-01-12T23:21:49.815Z,9.40
2019-01-12T23:24:18.660Z,9.20
2019-01-12T23:26:47.505Z,9.70
2019-01-12T23:29:16.341Z,9.68
2019-01-12T23:31:45.176Z,8.50
2019-01-12T23:34:14.011Z,8.98
2019-01-12T23:36:42.850Z,8.23
2019-01-12T23:39:11.694Z,8.88
2019-01-12T23:41:41.276Z,8.20
2019-01-12T23:44:14.795Z,7.70
2019-01-12T23:46:39.702Z,9.00
2019-01-12T23:49:09.281Z,7.40
2019-01-12T23:51:38.122Z,7.87
2019-01-12T23:54:06.959Z,8.27
2019-01-12T23:56:35.794Z,7.87
2019-01-12T23:59:05.370Z,7.90
